Time;durP1;ratioP1;P1;durP2;ratioP2;P2;SDS_P1;SDS_P2;PMS_P1;PMS_P2;Temp;Humidity;BMP_temperature;BMP_pressure;BME280_temperature;BME280_humidity;BME280_pressure;Samples;Min_cycle;Max_cycle;Signal;HPM_P1;HPM_P2
2021/06/06 00:01:56;;;;;;;5.87;2.90;;;;;;;;;;4972679;28;20285;-79
2021/06/06 00:04:25;;;;;;;4.50;3.10;;;;;;;;;;4967550;28;20629;-78
2021/06/06 00:06:53;;;;;;;5.47;3.00;;;;;;;;;;4969447;28;20635;-78
2021/06/06 00:09:20;;;;;;;6.13;3.13;;;;;;;;;;4975626;28;20703;-78
2021/06/06 00:11:48;;;;;;;4.70;2.93;;;;;;;;;;4972324;28;20634;-78
2021/06/06 00:14:16;;;;;;;5.67;3.03;;;;;;;;;;4961910;28;20332;-79
2021/06/06 00:16:44;;;;;;;5.30;3.10;;;;;;;;;;4973759;28;20290;-79
2021/06/06 00:19:11;;;;;;;6.27;3.50;;;;;;;;;;4958529;28;20678;-78
2021/06/06 00:21:38;;;;;;;7.33;3.90;;;;;;;;;;4968570;28;20234;-78
2021/06/06 00:24:08;;;;;;;5.47;4.10;;;;;;;;;;4975627;28;20310;-78
2021/06/06 00:26:35;;;;;;;4.97;3.73;;;;;;;;;;4975435;28;20245;-78
2021/06/06 00:29:02;;;;;;;4.37;3.77;;;;;;;;;;4975428;28;20239;-79
2021/06/06 00:31:28;;;;;;;6.13;3.50;;;;;;;;;;4975054;28;20277;-78
2021/06/06 00:33:55;;;;;;;5.30;3.77;;;;;;;;;;4973841;28;20233;-78
2021/06/06 00:36:23;;;;;;;4.93;3.90;;;;;;;;;;4969690;28;20242;-78
2021/06/06 00:38:49;;;;;;;6.43;4.20;;;;;;;;;;4974698;28;20286;-78
2021/06/06 00:41:18;;;;;;;5.37;3.97;;;;;;;;;;4975282;28;20312;-78
2021/06/06 00:43:45;;;;;;;5.43;3.80;;;;;;;;;;4973178;28;20782;-78
2021/06/06 00:46:12;;;;;;;5.57;3.80;;;;;;;;;;4971510;28;20230;-78
2021/06/06 00:48:39;;;;;;;6.53;4.37;;;;;;;;;;4964366;28;20744;-79
2021/06/06 00:51:08;;;;;;;7.43;4.23;;;;;;;;;;4973974;28;20198;-78
2021/06/06 00:53:37;;;;;;;4.87;3.60;;;;;;;;;;4975048;28;20242;-78
2021/06/06 00:56:05;;;;;;;4.80;4.10;;;;;;;;;;4974811;28;20242;-78
2021/06/06 00:58:33;;;;;;;5.93;4.10;;;;;;;;;;4957682;28;20241;-78
2021/06/06 01:01:01;;;;;;;5.63;3.87;;;;;;;;;;4962538;28;20310;-78
2021/06/06 01:03:28;;;;;;;5.50;4.23;;;;;;;;;;4972350;28;20206;-78
2021/06/06 01:05:57;;;;;;;5.77;4.10;;;;;;;;;;4971061;28;20226;-78
2021/06/06 01:08:23;;;;;;;4.77;3.90;;;;;;;;;;4965920;28;20285;-78
2021/06/06 01:10:53;;;;;;;5.50;3.97;;;;;;;;;;4972314;28;20233;-78
2021/06/06 01:13:22;;;;;;;5.80;4.00;;;;;;;;;;4960433;28;20234;-78
2021/06/06 01:15:52;;;;;;;6.17;4.23;;;;;;;;;;4954883;29;20242;-78
2021/06/06 01:18:24;;;;;;;7.30;4.23;;;;;;;;;;4956683;28;20242;-78
2021/06/06 01:20:56;;;;;;;5.03;4.17;;;;;;;;;;4973785;28;20232;-78
2021/06/06 01:23:29;;;;;;;5.70;4.10;;;;;;;;;;4972894;28;20294;-78
2021/06/06 01:26:00;;;;;;;6.53;4.17;;;;;;;;;;4963268;28;20274;-78
2021/06/06 01:28:31;;;;;;;5.63;4.20;;;;;;;;;;4963720;28;20680;-78
2021/06/06 01:30:59;;;;;;;5.97;4.33;;;;;;;;;;4966821;28;20727;-78
2021/06/06 01:33:27;;;;;;;6.03;4.27;;;;;;;;;;4960983;28;20376;-78
2021/06/06 01:35:57;;;;;;;5.33;4.33;;;;;;;;;;4955169;29;20649;-79
2021/06/06 01:38:24;;;;;;;5.63;4.47;;;;;;;;;;4966164;28;20248;-78
2021/06/06 01:40:53;;;;;;;5.57;4.40;;;;;;;;;;4966884;28;20600;-78
2021/06/06 01:43:23;;;;;;;7.20;4.30;;;;;;;;;;4973974;28;20202;-78
2021/06/06 01:45:52;;;;;;;7.77;4.27;;;;;;;;;;4962497;28;20760;-78
2021/06/06 01:48:19;;;;;;;6.73;4.33;;;;;;;;;;4957847;28;20727;-78
2021/06/06 01:50:48;;;;;;;9.47;4.50;;;;;;;;;;4961756;28;20247;-78
2021/06/06 01:53:15;;;;;;;6.30;4.20;;;;;;;;;;4973913;28;20258;-78
2021/06/06 01:55:43;;;;;;;4.97;4.20;;;;;;;;;;4960125;28;20230;-78
2021/06/06 01:58:12;;;;;;;4.67;4.00;;;;;;;;;;4954567;28;20199;-78
2021/06/06 02:00:43;;;;;;;5.07;4.37;;;;;;;;;;4974187;28;20230;-78
2021/06/06 02:03:10;;;;;;;6.07;4.20;;;;;;;;;;4966898;28;20234;-78
2021/06/06 02:05:36;;;;;;;6.70;4.10;;;;;;;;;;4968054;28;20286;-78
2021/06/06 02:08:05;;;;;;;5.93;4.13;;;;;;;;;;4954588;29;20226;-79
2021/06/06 02:10:33;;;;;;;6.03;4.07;;;;;;;;;;4972681;28;20290;-78
2021/06/06 02:13:03;;;;;;;6.67;4.40;;;;;;;;;;4972909;28;20277;-78
2021/06/06 02:15:31;;;;;;;4.87;3.70;;;;;;;;;;4970510;28;20229;-78
2021/06/06 02:18:00;;;;;;;6.40;4.10;;;;;;;;;;4954414;29;20237;-78
2021/06/06 02:20:28;;;;;;;6.90;3.70;;;;;;;;;;4961220;28;20314;-78
2021/06/06 02:22:56;;;;;;;7.23;3.80;;;;;;;;;;4967908;28;20322;-78
2021/06/06 02:25:23;;;;;;;4.30;3.60;;;;;;;;;;4955775;28;20210;-78
2021/06/06 02:27:52;;;;;;;4.47;3.83;;;;;;;;;;4972810;28;20328;-78
2021/06/06 02:30:23;;;;;;;3.93;3.47;;;;;;;;;;4973306;28;20277;-78
2021/06/06 02:32:55;;;;;;;4.50;3.80;;;;;;;;;;4971060;28;20242;-78
2021/06/06 02:35:27;;;;;;;4.67;3.53;;;;;;;;;;4954171;29;20233;-78
2021/06/06 02:37:55;;;;;;;6.33;4.60;;;;;;;;;;4964228;28;20201;-78
2021/06/06 02:40:25;;;;;;;5.70;4.00;;;;;;;;;;4968803;28;20304;-78
2021/06/06 02:42:53;;;;;;;5.07;3.90;;;;;;;;;;4964207;28;20206;-78
2021/06/06 02:45:21;;;;;;;4.70;3.77;;;;;;;;;;4942807;28;20676;-78
2021/06/06 02:47:49;;;;;;;4.70;4.13;;;;;;;;;;4953858;28;20292;-78
2021/06/06 02:50:18;;;;;;;5.60;4.27;;;;;;;;;;4959274;28;20206;-78
2021/06/06 02:52:49;;;;;;;7.43;4.50;;;;;;;;;;4953921;28;20289;-78
2021/06/06 02:55:18;;;;;;;5.63;4.23;;;;;;;;;;4964584;28;20243;-78
2021/06/06 02:57:48;;;;;;;5.90;4.60;;;;;;;;;;4972496;28;20346;-78
2021/06/06 03:00:16;;;;;;;5.63;4.13;;;;;;;;;;4972894;28;20229;-78
2021/06/06 03:02:45;;;;;;;5.97;4.17;;;;;;;;;;4973005;28;20247;-78
2021/06/06 03:05:13;;;;;;;4.83;3.53;;;;;;;;;;4972604;28;20208;-78
2021/06/06 03:07:43;;;;;;;5.47;3.97;;;;;;;;;;4964554;28;20292;-78
2021/06/06 03:10:12;;;;;;;6.17;4.20;;;;;;;;;;4972736;28;20198;-78
2021/06/06 03:12:39;;;;;;;6.33;4.03;;;;;;;;;;4972780;28;20666;-78
2021/06/06 03:15:08;;;;;;;6.23;4.10;;;;;;;;;;4968112;28;20239;-78
2021/06/06 03:17:35;;;;;;;8.63;4.17;;;;;;;;;;4957744;28;20326;-78
2021/06/06 03:20:05;;;;;;;6.63;4.40;;;;;;;;;;4960766;28;20257;-78
2021/06/06 03:22:33;;;;;;;7.50;4.10;;;;;;;;;;4965776;28;20342;-78
2021/06/06 03:25:02;;;;;;;6.20;4.20;;;;;;;;;;4970991;28;20253;-78
2021/06/06 03:27:34;;;;;;;5.50;4.17;;;;;;;;;;4953928;29;20596;-78
2021/06/06 03:30:02;;;;;;;4.67;4.07;;;;;;;;;;4958760;28;20248;-78
2021/06/06 03:32:31;;;;;;;5.77;4.27;;;;;;;;;;4972533;28;20229;-78
2021/06/06 03:34:58;;;;;;;5.40;3.97;;;;;;;;;;4954820;28;20256;-78
2021/06/06 03:37:25;;;;;;;7.00;4.37;;;;;;;;;;4968298;28;20210;-79
2021/06/06 03:39:52;;;;;;;8.83;4.30;;;;;;;;;;4971045;28;20261;-78
2021/06/06 03:42:18;;;;;;;5.83;4.33;;;;;;;;;;4971391;28;20210;-78
2021/06/06 03:44:46;;;;;;;6.20;4.80;;;;;;;;;;4964604;28;20238;-78
2021/06/06 03:47:13;;;;;;;4.17;3.77;;;;;;;;;;4963771;28;20234;-79
2021/06/06 03:49:40;;;;;;;4.80;4.00;;;;;;;;;;4963223;28;20280;-78
2021/06/06 03:52:07;;;;;;;5.47;4.33;;;;;;;;;;4971365;28;20303;-78
2021/06/06 03:54:34;;;;;;;5.00;3.90;;;;;;;;;;4972002;28;20293;-78
2021/06/06 03:57:01;;;;;;;5.57;4.17;;;;;;;;;;4965840;28;20234;-78
2021/06/06 03:59:27;;;;;;;4.60;3.87;;;;;;;;;;4971075;28;20293;-78
2021/06/06 04:01:56;;;;;;;4.30;3.90;;;;;;;;;;4967819;28;20242;-78
2021/06/06 04:04:22;;;;;;;6.80;4.37;;;;;;;;;;4958699;28;20831;-78
2021/06/06 04:06:49;;;;;;;5.37;4.17;;;;;;;;;;4953218;29;20194;-78
2021/06/06 04:09:16;;;;;;;4.87;4.00;;;;;;;;;;4964339;28;20261;-78
2021/06/06 04:11:43;;;;;;;5.10;4.10;;;;;;;;;;4964434;28;20198;-78
2021/06/06 04:14:10;;;;;;;4.73;4.23;;;;;;;;;;4970127;28;20295;-78
2021/06/06 04:16:38;;;;;;;5.87;4.17;;;;;;;;;;4953472;28;20637;-78
2021/06/06 04:19:06;;;;;;;5.97;4.30;;;;;;;;;;4969326;28;20244;-78
2021/06/06 04:21:34;;;;;;;5.07;4.27;;;;;;;;;;4956605;28;20648;-78
2021/06/06 04:24:01;;;;;;;5.03;4.00;;;;;;;;;;4967660;28;20676;-78
2021/06/06 04:26:28;;;;;;;5.83;4.10;;;;;;;;;;4975196;28;20233;-78
2021/06/06 04:28:55;;;;;;;5.10;4.27;;;;;;;;;;4974896;28;20702;-78
2021/06/06 04:31:22;;;;;;;6.30;4.10;;;;;;;;;;4975597;28;20283;-78
2021/06/06 04:33:49;;;;;;;4.80;4.37;;;;;;;;;;4967251;28;20197;-78
2021/06/06 04:36:17;;;;;;;5.93;4.53;;;;;;;;;;4974077;28;20248;-78
2021/06/06 04:38:44;;;;;;;7.87;4.70;;;;;;;;;;4958168;28;20289;-78
2021/06/06 04:41:12;;;;;;;6.50;4.80;;;;;;;;;;4959677;28;20256;-78
2021/06/06 04:43:39;;;;;;;7.87;4.80;;;;;;;;;;4975200;28;20238;-79
2021/06/06 04:46:07;;;;;;;5.97;4.60;;;;;;;;;;4975489;28;20202;-79
2021/06/06 04:48:35;;;;;;;4.97;4.40;;;;;;;;;;4962870;28;20261;-79
2021/06/06 04:51:03;;;;;;;6.13;4.47;;;;;;;;;;4962983;28;20283;-79
2021/06/06 04:53:31;;;;;;;6.43;4.63;;;;;;;;;;4967632;28;20297;-79
2021/06/06 04:55:58;;;;;;;7.13;4.27;;;;;;;;;;4974071;28;20288;-78
2021/06/06 04:58:26;;;;;;;5.53;4.23;;;;;;;;;;4970551;28;20195;-79
2021/06/06 05:00:53;;;;;;;7.20;4.43;;;;;;;;;;4955221;28;20751;-79
2021/06/06 05:03:21;;;;;;;5.93;4.67;;;;;;;;;;4962086;28;20295;-79
2021/06/06 05:05:48;;;;;;;6.27;5.30;;;;;;;;;;4968033;28;20209;-78
2021/06/06 05:08:16;;;;;;;6.47;4.87;;;;;;;;;;4972323;28;20231;-79
2021/06/06 05:10:46;;;;;;;6.10;5.00;;;;;;;;;;4955538;28;20290;-79
2021/06/06 05:13:13;;;;;;;7.30;5.73;;;;;;;;;;4966029;28;20318;-79
2021/06/06 05:15:40;;;;;;;8.23;5.80;;;;;;;;;;4967074;28;20714;-79
2021/06/06 05:18:07;;;;;;;8.87;5.90;;;;;;;;;;4963780;28;20199;-79
2021/06/06 05:20:35;;;;;;;9.13;6.30;;;;;;;;;;4974000;28;20297;-79
2021/06/06 05:23:02;;;;;;;8.20;6.97;;;;;;;;;;4960495;28;20623;-79
2021/06/06 05:25:29;;;;;;;8.27;6.80;;;;;;;;;;4955071;29;20289;-79
2021/06/06 05:27:57;;;;;;;8.27;6.20;;;;;;;;;;4965599;28;20672;-78
2021/06/06 05:30:25;;;;;;;7.53;6.03;;;;;;;;;;4973862;28;20576;-78
2021/06/06 05:32:53;;;;;;;10.83;6.40;;;;;;;;;;4974569;28;20209;-78
2021/06/06 05:35:20;;;;;;;10.77;6.90;;;;;;;;;;4974272;28;20227;-79
2021/06/06 05:37:47;;;;;;;9.53;6.63;;;;;;;;;;4974320;28;20296;-79
2021/06/06 05:40:14;;;;;;;11.13;6.27;;;;;;;;;;4974071;28;20309;-78
2021/06/06 05:42:43;;;;;;;9.97;6.37;;;;;;;;;;4961119;28;20612;-78
2021/06/06 05:45:13;;;;;;;7.40;5.97;;;;;;;;;;4968072;28;20257;-79
2021/06/06 05:47:40;;;;;;;10.00;6.80;;;;;;;;;;4962376;28;20242;-78
2021/06/06 05:50:07;;;;;;;8.37;6.50;;;;;;;;;;4968696;28;20261;-78
2021/06/06 05:52:34;;;;;;;7.53;6.13;;;;;;;;;;4972760;28;20226;-79
2021/06/06 05:55:01;;;;;;;7.30;6.53;;;;;;;;;;4964209;28;20277;-79
2021/06/06 05:57:28;;;;;;;8.83;6.60;;;;;;;;;;4961786;28;20736;-79
2021/06/06 05:59:54;;;;;;;9.57;6.80;;;;;;;;;;4959822;28;20298;-79
2021/06/06 06:02:22;;;;;;;8.27;6.47;;;;;;;;;;4958991;28;20294;-79
2021/06/06 06:04:49;;;;;;;10.17;5.93;;;;;;;;;;4966490;28;20237;-79
2021/06/06 06:07:16;;;;;;;8.63;5.77;;;;;;;;;;4954277;29;20207;-79
2021/06/06 06:09:43;;;;;;;7.60;5.93;;;;;;;;;;4955876;28;20207;-79
2021/06/06 06:12:10;;;;;;;7.73;5.90;;;;;;;;;;4963185;28;20314;-79
2021/06/06 06:14:36;;;;;;;8.03;5.90;;;;;;;;;;4954019;28;20257;-79
2021/06/06 06:17:03;;;;;;;8.43;6.13;;;;;;;;;;4973748;28;20198;-79
2021/06/06 06:19:32;;;;;;;5.97;5.10;;;;;;;;;;4973698;28;20246;-79
2021/06/06 06:21:58;;;;;;;9.70;5.53;;;;;;;;;;4955536;28;20670;-79
2021/06/06 06:24:25;;;;;;;7.30;5.40;;;;;;;;;;4954107;28;20238;-79
2021/06/06 06:26:53;;;;;;;7.53;5.27;;;;;;;;;;4971111;28;20205;-79
2021/06/06 06:29:20;;;;;;;8.07;5.18;;;;;;;;;;4972488;28;20233;-79
2021/06/06 06:31:46;;;;;;;5.70;4.25;;;;;;;;;;4963737;28;20278;-79
2021/06/06 06:34:13;;;;;;;7.45;4.68;;;;;;;;;;4954870;28;20203;-79
2021/06/06 06:36:42;;;;;;;6.88;3.85;;;;;;;;;;4961009;28;20286;-79
2021/06/06 06:39:09;;;;;;;5.75;4.40;;;;;;;;;;4953777;29;20688;-79
2021/06/06 06:41:36;;;;;;;7.15;4.10;;;;;;;;;;4962171;28;20309;-79
2021/06/06 06:44:03;;;;;;;7.13;3.85;;;;;;;;;;4972666;28;20285;-79
2021/06/06 06:46:30;;;;;;;6.20;4.22;;;;;;;;;;4958709;28;20630;-79
2021/06/06 06:48:57;;;;;;;5.75;4.03;;;;;;;;;;4959244;28;20266;-79
2021/06/06 06:51:24;;;;;;;5.72;4.13;;;;;;;;;;4966302;28;20202;-80
2021/06/06 06:53:54;;;;;;;3.92;3.55;;;;;;;;;;4964192;28;20195;-79
2021/06/06 06:56:21;;;;;;;8.65;3.75;;;;;;;;;;4957271;28;20241;-79
2021/06/06 06:58:49;;;;;;;5.05;3.28;;;;;;;;;;4971069;28;20262;-79
2021/06/06 07:01:16;;;;;;;4.85;3.30;;;;;;;;;;4965553;28;20257;-78
2021/06/06 07:03:43;;;;;;;5.72;3.60;;;;;;;;;;4958021;28;20289;-79
2021/06/06 07:06:10;;;;;;;5.53;3.40;;;;;;;;;;4957119;28;20202;-79
2021/06/06 07:08:37;;;;;;;4.72;2.67;;;;;;;;;;4964661;28;20616;-79
2021/06/06 07:11:06;;;;;;;6.20;3.25;;;;;;;;;;4958083;28;20238;-78
2021/06/06 07:13:33;;;;;;;4.22;2.90;;;;;;;;;;4963764;28;20234;-78
2021/06/06 07:16:01;;;;;;;6.45;3.17;;;;;;;;;;4969249;28;20579;-77
2021/06/06 07:18:28;;;;;;;5.32;2.97;;;;;;;;;;4967387;28;20259;-78
2021/06/06 07:20:56;;;;;;;5.05;2.72;;;;;;;;;;4971767;28;20260;-77
2021/06/06 07:23:23;;;;;;;3.53;2.35;;;;;;;;;;4970495;28;20668;-78
2021/06/06 07:25:50;;;;;;;4.57;2.38;;;;;;;;;;4971661;28;20206;-78
2021/06/06 07:28:21;;;;;;;5.13;2.55;;;;;;;;;;4968307;28;20225;-78
2021/06/06 07:30:49;;;;;;;4.10;2.15;;;;;;;;;;4971175;28;20195;-79
2021/06/06 07:33:17;;;;;;;3.17;2.15;;;;;;;;;;4971497;28;20557;-78
2021/06/06 07:35:44;;;;;;;4.28;1.92;;;;;;;;;;4968567;28;20230;-78
2021/06/06 07:38:11;;;;;;;3.95;2.00;;;;;;;;;;4957038;28;20238;-79
2021/06/06 07:40:39;;;;;;;4.43;1.90;;;;;;;;;;4961526;28;20665;-79
2021/06/06 07:43:06;;;;;;;3.17;2.03;;;;;;;;;;4962842;28;20210;-77
2021/06/06 07:45:35;;;;;;;5.63;2.10;;;;;;;;;;4963715;28;20237;-78
2021/06/06 07:48:02;;;;;;;3.40;1.48;;;;;;;;;;4963709;28;20230;-79
2021/06/06 07:50:30;;;;;;;2.58;1.50;;;;;;;;;;4962916;28;20309;-78
2021/06/06 07:52:57;;;;;;;4.15;1.80;;;;;;;;;;4961900;28;20207;-78
2021/06/06 07:55:24;;;;;;;2.55;1.55;;;;;;;;;;4973145;28;20256;-78
2021/06/06 07:57:51;;;;;;;4.53;1.73;;;;;;;;;;4959031;28;20739;-78
2021/06/06 08:00:21;;;;;;;2.85;1.70;;;;;;;;;;4971256;28;20226;-79
2021/06/06 08:02:49;;;;;;;3.00;1.80;;;;;;;;;;4970433;28;20680;-78
2021/06/06 08:05:16;;;;;;;3.33;1.95;;;;;;;;;;4968399;28;20767;-78
2021/06/06 08:07:43;;;;;;;2.92;1.58;;;;;;;;;;4973247;28;20237;-78
2021/06/06 08:10:11;;;;;;;5.50;1.90;;;;;;;;;;4960277;28;20678;-78
2021/06/06 08:12:38;;;;;;;3.97;1.90;;;;;;;;;;4974533;28;20234;-77
2021/06/06 08:15:05;;;;;;;3.35;1.90;;;;;;;;;;4974862;28;20318;-78
2021/06/06 08:17:32;;;;;;;2.75;1.52;;;;;;;;;;4958440;28;20305;-78
2021/06/06 08:20:00;;;;;;;2.40;1.40;;;;;;;;;;4956723;28;20238;-78
2021/06/06 08:22:27;;;;;;;3.60;1.80;;;;;;;;;;4979102;28;20308;-78
2021/06/06 08:24:53;;;;;;;3.30;1.70;;;;;;;;;;4957809;28;20290;-78
2021/06/06 08:27:20;;;;;;;5.90;1.70;;;;;;;;;;4971308;28;20304;-78
2021/06/06 08:29:47;;;;;;;3.92;1.65;;;;;;;;;;4969618;28;20227;-78
2021/06/06 08:32:14;;;;;;;3.15;1.95;;;;;;;;;;4968250;28;20288;-78
2021/06/06 08:34:40;;;;;;;4.53;1.42;;;;;;;;;;4963183;28;20285;-77
2021/06/06 08:37:08;;;;;;;2.55;1.50;;;;;;;;;;4968876;28;20289;-79
2021/06/06 08:39:36;;;;;;;3.85;1.65;;;;;;;;;;4971848;28;20238;-79
2021/06/06 08:42:06;;;;;;;3.53;1.58;;;;;;;;;;4961729;28;20731;-80
2021/06/06 08:44:34;;;;;;;3.20;1.60;;;;;;;;;;4969324;28;20241;-79
2021/06/06 08:47:02;;;;;;;3.13;1.50;;;;;;;;;;4966633;28;20238;-80
2021/06/06 08:49:31;;;;;;;3.10;1.60;;;;;;;;;;4972603;28;20258;-79
2021/06/06 08:52:03;;;;;;;3.17;1.67;;;;;;;;;;4965539;28;20226;-79
2021/06/06 08:54:34;;;;;;;2.78;1.30;;;;;;;;;;4973153;28;20803;-80
2021/06/06 08:57:03;;;;;;;2.65;1.30;;;;;;;;;;4965918;28;20198;-79
2021/06/06 08:59:32;;;;;;;3.85;1.20;;;;;;;;;;4965242;28;20260;-77
2021/06/06 09:02:04;;;;;;;2.83;1.20;;;;;;;;;;4959407;28;20628;-78
2021/06/06 09:04:32;;;;;;;2.28;1.10;;;;;;;;;;4973249;28;20265;-77
2021/06/06 09:07:01;;;;;;;3.25;1.20;;;;;;;;;;4958536;28;20569;-77
2021/06/06 09:09:29;;;;;;;2.40;1.30;;;;;;;;;;4955342;28;20258;-77
2021/06/06 09:12:00;;;;;;;1.63;1.10;;;;;;;;;;4961323;28;20627;-77
2021/06/06 09:14:27;;;;;;;2.60;1.55;;;;;;;;;;4973198;28;20684;-76
2021/06/06 09:16:55;;;;;;;1.95;1.17;;;;;;;;;;4960391;28;20249;-77
2021/06/06 09:19:22;;;;;;;3.08;1.23;;;;;;;;;;4970638;28;20234;-76
2021/06/06 09:21:53;;;;;;;2.25;1.35;;;;;;;;;;4972780;28;20281;-76
2021/06/06 09:24:25;;;;;;;2.22;1.20;;;;;;;;;;4972497;28;20756;-76
2021/06/06 09:26:51;;;;;;;1.83;1.10;;;;;;;;;;4968246;28;20731;-76
2021/06/06 09:29:21;;;;;;;3.75;1.40;;;;;;;;;;4960381;28;20203;-77
2021/06/06 09:31:48;;;;;;;2.10;1.10;;;;;;;;;;4972370;28;20285;-76
2021/06/06 09:34:19;;;;;;;2.00;1.15;;;;;;;;;;4971668;28;20294;-76
2021/06/06 09:36:59;;;;;;;3.20;1.40;;;;;;;;;;4967049;28;20289;-76
2021/06/06 09:39:26;;;;;;;2.85;1.55;;;;;;;;;;4963898;28;20240;-77
2021/06/06 09:41:54;;;;;;;2.53;1.35;;;;;;;;;;4967673;28;20254;-77
2021/06/06 09:44:25;;;;;;;4.32;1.52;;;;;;;;;;4961395;28;20285;-77
2021/06/06 09:46:53;;;;;;;2.22;1.60;;;;;;;;;;4972211;28;20238;-76
2021/06/06 09:49:25;;;;;;;2.40;1.27;;;;;;;;;;4971285;28;20296;-77
2021/06/06 09:51:53;;;;;;;3.20;1.20;;;;;;;;;;4967107;28;20623;-77
2021/06/06 09:54:28;;;;;;;1.83;1.10;;;;;;;;;;4972324;28;20252;-75
2021/06/06 09:56:57;;;;;;;2.67;1.20;;;;;;;;;;4969784;28;20736;-75
2021/06/06 09:59:26;;;;;;;2.95;1.20;;;;;;;;;;4942821;28;20238;-75
2021/06/06 10:01:56;;;;;;;3.20;1.35;;;;;;;;;;4973065;28;20305;-75
2021/06/06 10:04:25;;;;;;;2.25;1.20;;;;;;;;;;4958355;28;20704;-75
2021/06/06 10:06:52;;;;;;;1.88;1.10;;;;;;;;;;4972881;28;20238;-75
2021/06/06 10:09:26;;;;;;;1.17;1.00;;;;;;;;;;4970056;28;20285;-76
2021/06/06 10:11:54;;;;;;;2.47;1.13;;;;;;;;;;4972789;28;20236;-75
2021/06/06 10:14:24;;;;;;;3.42;1.27;;;;;;;;;;4972984;28;20560;-75
2021/06/06 10:16:54;;;;;;;2.17;0.93;;;;;;;;;;4973086;28;20294;-75
2021/06/06 10:19:23;;;;;;;2.15;1.00;;;;;;;;;;4973287;28;20642;-75
2021/06/06 10:21:53;;;;;;;2.05;1.00;;;;;;;;;;4973070;28;20313;-75
2021/06/06 10:24:22;;;;;;;2.25;1.02;;;;;;;;;;4973076;28;20206;-75
2021/06/06 10:26:52;;;;;;;3.15;1.30;;;;;;;;;;4972898;28;20292;-75
2021/06/06 10:29:24;;;;;;;1.67;1.20;;;;;;;;;;4972779;28;20238;-75
2021/06/06 10:31:54;;;;;;;1.80;1.33;;;;;;;;;;4973082;28;20298;-75
2021/06/06 10:34:26;;;;;;;2.58;1.55;;;;;;;;;;4973188;28;20297;-75
2021/06/06 10:36:53;;;;;;;2.03;1.13;;;;;;;;;;4960107;28;20215;-75
2021/06/06 10:39:22;;;;;;;2.10;1.63;;;;;;;;;;4953748;29;20230;-75
2021/06/06 10:41:55;;;;;;;2.90;1.25;;;;;;;;;;4970581;28;20630;-75
2021/06/06 10:44:25;;;;;;;1.80;1.30;;;;;;;;;;4971893;28;20226;-75
2021/06/06 10:46:55;;;;;;;2.42;1.30;;;;;;;;;;4965412;28;20286;-75
2021/06/06 10:49:24;;;;;;;2.65;2.22;;;;;;;;;;4968947;28;20719;-75
2021/06/06 10:51:52;;;;;;;4.38;3.20;;;;;;;;;;4972209;28;20309;-75
2021/06/06 10:54:29;;;;;;;2.72;1.33;;;;;;;;;;4972338;28;20238;-75
2021/06/06 10:56:57;;;;;;;2.97;2.20;;;;;;;;;;4956041;28;20207;-75
2021/06/06 10:59:29;;;;;;;1.77;1.65;;;;;;;;;;4958405;28;20207;-75
2021/06/06 11:01:58;;;;;;;3.75;2.05;;;;;;;;;;4946802;28;20312;-75
2021/06/06 11:04:27;;;;;;;2.65;1.10;;;;;;;;;;4973053;28;20234;-75
2021/06/06 11:07:08;;;;;;;1.92;0.98;;;;;;;;;;4972310;28;20206;-74
2021/06/06 11:09:36;;;;;;;1.90;1.10;;;;;;;;;;4971471;28;20240;-75
2021/06/06 11:12:04;;;;;;;2.40;1.20;;;;;;;;;;4972548;28;20245;-76
2021/06/06 11:14:33;;;;;;;1.70;1.10;;;;;;;;;;4971995;28;20237;-76
2021/06/06 11:17:10;;;;;;;2.85;1.30;;;;;;;;;;4972427;28;20361;-75
2021/06/06 11:19:37;;;;;;;2.20;1.30;;;;;;;;;;4971991;28;20285;-75
2021/06/06 11:22:15;;;;;;;2.03;1.13;;;;;;;;;;4972422;28;20325;-75
2021/06/06 11:24:47;;;;;;;2.38;1.20;;;;;;;;;;4972137;28;20260;-75
2021/06/06 11:27:30;;;;;;;1.88;1.40;;;;;;;;;;4962789;28;20211;-75
2021/06/06 11:29:59;;;;;;;1.65;1.27;;;;;;;;;;4956682;29;20639;-75
2021/06/06 11:32:29;;;;;;;3.13;1.55;;;;;;;;;;4971073;28;20602;-75
2021/06/06 11:35:14;;;;;;;3.22;1.40;;;;;;;;;;4965775;28;20234;-75
2021/06/06 11:37:42;;;;;;;2.63;1.00;;;;;;;;;;4964171;28;20257;-75
2021/06/06 11:40:23;;;;;;;1.63;0.90;;;;;;;;;;4975630;28;20294;-75
2021/06/06 11:42:51;;;;;;;1.20;0.98;;;;;;;;;;4957311;28;20215;-75
2021/06/06 11:45:19;;;;;;;2.13;1.20;;;;;;;;;;4972110;28;20289;-75
2021/06/06 11:47:49;;;;;;;2.50;1.38;;;;;;;;;;4967460;28;20290;-75
2021/06/06 11:50:18;;;;;;;3.25;1.10;;;;;;;;;;4956185;28;20243;-75
2021/06/06 11:52:49;;;;;;;2.97;1.50;;;;;;;;;;4956522;29;20969;-76
2021/06/06 11:55:17;;;;;;;2.15;1.10;;;;;;;;;;4956920;29;20199;-75
2021/06/06 11:57:50;;;;;;;2.38;1.00;;;;;;;;;;4956845;29;20230;-75
2021/06/06 12:00:20;;;;;;;1.90;1.02;;;;;;;;;;4974024;28;20202;-75
2021/06/06 12:02:48;;;;;;;2.63;1.20;;;;;;;;;;4968592;28;20218;-75
2021/06/06 12:05:17;;;;;;;1.95;1.20;;;;;;;;;;4965292;28;20296;-75
2021/06/06 12:07:44;;;;;;;2.63;1.15;;;;;;;;;;4974555;28;20321;-75
2021/06/06 12:10:20;;;;;;;1.98;1.02;;;;;;;;;;4975493;28;20664;-75
2021/06/06 12:12:48;;;;;;;2.67;1.20;;;;;;;;;;4974184;28;20198;-75
2021/06/06 12:15:21;;;;;;;2.38;1.20;;;;;;;;;;4975237;28;20268;-75
2021/06/06 12:17:59;;;;;;;2.75;1.35;;;;;;;;;;4975673;28;20695;-75
2021/06/06 12:20:26;;;;;;;2.30;1.38;;;;;;;;;;4975620;28;20341;-75
2021/06/06 12:23:03;;;;;;;1.35;1.00;;;;;;;;;;4975423;28;20266;-75
2021/06/06 12:25:30;;;;;;;2.35;1.20;;;;;;;;;;4975299;28;20289;-75
2021/06/06 12:28:00;;;;;;;2.40;1.40;;;;;;;;;;4973153;28;20243;-76
2021/06/06 12:30:28;;;;;;;2.35;1.00;;;;;;;;;;4956331;29;20297;-75
2021/06/06 12:32:58;;;;;;;1.95;1.20;;;;;;;;;;4972776;28;20230;-75
2021/06/06 12:35:26;;;;;;;1.52;1.00;;;;;;;;;;4975041;28;20203;-74
2021/06/06 12:37:55;;;;;;;2.35;1.10;;;;;;;;;;4973291;28;20768;-75
2021/06/06 12:40:24;;;;;;;2.72;1.30;;;;;;;;;;4957059;28;20294;-75
2021/06/06 12:42:54;;;;;;;1.60;1.10;;;;;;;;;;4968404;28;20223;-75
2021/06/06 12:45:21;;;;;;;1.55;1.00;;;;;;;;;;4955087;28;20597;-75
2021/06/06 12:47:48;;;;;;;2.28;1.10;;;;;;;;;;4968154;28;20250;-75
2021/06/06 12:50:25;;;;;;;1.20;1.05;;;;;;;;;;4958938;28;20241;-75
2021/06/06 12:52:52;;;;;;;3.05;1.30;;;;;;;;;;4973530;28;20296;-75
2021/06/06 12:55:23;;;;;;;2.08;1.20;;;;;;;;;;4962333;28;20289;-75
2021/06/06 12:57:51;;;;;;;2.70;1.25;;;;;;;;;;4973455;28;20642;-75
2021/06/06 13:00:22;;;;;;;3.47;1.13;;;;;;;;;;4974747;28;20294;-75
2021/06/06 13:02:49;;;;;;;1.75;1.13;;;;;;;;;;4974056;28;20704;-75
2021/06/06 13:05:28;;;;;;;2.00;1.10;;;;;;;;;;4974412;28;20234;-76
2021/06/06 13:07:57;;;;;;;2.55;1.20;;;;;;;;;;4973753;28;20289;-75
2021/06/06 13:10:27;;;;;;;3.40;1.42;;;;;;;;;;4973661;28;20276;-75
2021/06/06 13:12:54;;;;;;;2.13;1.15;;;;;;;;;;4974021;28;20494;-76
2021/06/06 13:15:33;;;;;;;1.23;1.10;;;;;;;;;;4957434;28;20195;-75
2021/06/06 13:17:59;;;;;;;2.50;1.05;;;;;;;;;;4955153;29;20285;-75
2021/06/06 13:20:28;;;;;;;2.05;1.10;;;;;;;;;;4964433;28;20253;-75
2021/06/06 13:22:58;;;;;;;2.45;1.20;;;;;;;;;;4973507;28;20305;-75
2021/06/06 13:25:29;;;;;;;1.88;1.20;;;;;;;;;;4973249;28;20688;-75
2021/06/06 13:27:56;;;;;;;1.92;0.90;;;;;;;;;;4974164;28;20381;-75
2021/06/06 13:30:26;;;;;;;1.45;1.00;;;;;;;;;;4973666;28;20237;-75
2021/06/06 13:32:57;;;;;;;1.80;1.13;;;;;;;;;;4968254;28;20290;-75
2021/06/06 13:35:24;;;;;;;2.63;1.30;;;;;;;;;;4973033;28;20237;-75
2021/06/06 13:37:51;;;;;;;1.42;1.10;;;;;;;;;;4954458;29;20294;-75
2021/06/06 13:40:21;;;;;;;1.60;1.20;;;;;;;;;;4954434;29;20360;-75
2021/06/06 13:42:48;;;;;;;2.05;1.15;;;;;;;;;;4954651;29;20226;-75
2021/06/06 13:45:16;;;;;;;1.55;1.08;;;;;;;;;;4954615;29;20640;-75
2021/06/06 13:47:43;;;;;;;2.63;1.70;;;;;;;;;;4961886;28;20239;-75
2021/06/06 13:50:11;;;;;;;1.67;1.02;;;;;;;;;;4969562;28;20292;-75
2021/06/06 13:52:38;;;;;;;2.15;1.00;;;;;;;;;;4956765;28;20246;-75
2021/06/06 13:55:13;;;;;;;2.15;1.10;;;;;;;;;;4970097;28;20655;-75
2021/06/06 13:57:41;;;;;;;3.70;1.17;;;;;;;;;;4954170;28;20289;-75
2021/06/06 14:00:10;;;;;;;2.35;1.27;;;;;;;;;;4970685;28;20382;-75
2021/06/06 14:02:37;;;;;;;2.38;1.35;;;;;;;;;;4954021;28;20282;-75
2021/06/06 14:05:04;;;;;;;1.42;1.15;;;;;;;;;;4960410;28;20199;-75
2021/06/06 14:07:33;;;;;;;2.15;1.25;;;;;;;;;;4973059;28;20631;-75
2021/06/06 14:10:00;;;;;;;1.73;1.17;;;;;;;;;;4973585;28;20215;-75
2021/06/06 14:12:27;;;;;;;3.22;1.20;;;;;;;;;;4973264;28;20670;-75
2021/06/06 14:14:55;;;;;;;2.45;1.40;;;;;;;;;;4972375;28;20203;-75
2021/06/06 14:17:22;;;;;;;2.72;1.30;;;;;;;;;;4973087;28;20290;-75
2021/06/06 14:19:48;;;;;;;3.75;1.33;;;;;;;;;;4955467;28;20203;-75
2021/06/06 14:22:15;;;;;;;1.75;1.23;;;;;;;;;;4953906;29;20346;-76
2021/06/06 14:24:42;;;;;;;2.17;1.45;;;;;;;;;;4953609;28;20307;-75
2021/06/06 14:27:09;;;;;;;4.95;1.50;;;;;;;;;;4963382;28;20202;-75
2021/06/06 14:29:37;;;;;;;2.03;1.30;;;;;;;;;;4973025;28;20653;-75
2021/06/06 14:32:06;;;;;;;2.47;1.50;;;;;;;;;;4967410;28;20242;-75
2021/06/06 14:34:33;;;;;;;3.05;1.48;;;;;;;;;;4955101;28;20239;-77
2021/06/06 14:37:00;;;;;;;2.83;1.48;;;;;;;;;;4972869;28;20308;-76
2021/06/06 14:39:26;;;;;;;1.70;1.30;;;;;;;;;;4973114;28;20206;-75
2021/06/06 14:41:54;;;;;;;2.00;1.20;;;;;;;;;;4954415;28;20242;-75
2021/06/06 14:44:21;;;;;;;1.92;1.20;;;;;;;;;;4964328;28;20672;-78
2021/06/06 14:46:48;;;;;;;1.75;1.15;;;;;;;;;;4962283;28;20246;-75
2021/06/06 14:49:16;;;;;;;2.35;1.17;;;;;;;;;;4972905;28;20636;-77
2021/06/06 14:51:43;;;;;;;1.45;1.17;;;;;;;;;;4972088;28;20246;-77